createdAt,value
2023-01-31T00:00:20.177Z,6.87
2023-01-31T00:02:48.289Z,6.86
2023-01-31T00:05:16.701Z,6.92
2023-01-31T00:07:44.731Z,6.92
2023-01-31T00:10:12.771Z,6.90
2023-01-31T00:12:40.898Z,6.96
2023-01-31T00:15:13.559Z,6.83
2023-01-31T00:17:41.838Z,6.69
2023-01-31T00:20:11.664Z,6.54
2023-01-31T00:22:40.195Z,6.62
2023-01-31T00:25:09.862Z,6.55
2023-01-31T00:27:38.471Z,6.53
2023-01-31T00:30:08.250Z,6.56
2023-01-31T00:32:38.107Z,6.66
2023-01-31T00:35:06.988Z,6.59
2023-01-31T00:37:34.863Z,6.65
2023-01-31T00:40:04.446Z,6.59
2023-01-31T00:42:32.402Z,6.60
2023-01-31T00:45:01.716Z,6.68
2023-01-31T00:47:29.877Z,6.49
2023-01-31T00:49:59.348Z,6.63
2023-01-31T00:52:27.452Z,6.41
2023-01-31T00:54:55.464Z,6.63
2023-01-31T00:57:23.530Z,6.53
2023-01-31T00:59:52.073Z,6.59
2023-01-31T01:02:20.007Z,6.50
2023-01-31T01:04:47.990Z,6.36
2023-01-31T01:07:17.633Z,6.45
2023-01-31T01:09:45.639Z,6.40
2023-01-31T01:12:16.242Z,6.23
2023-01-31T01:14:44.275Z,6.38
2023-01-31T01:17:12.301Z,6.43
2023-01-31T01:19:40.394Z,6.53
2023-01-31T01:22:08.420Z,6.53
2023-01-31T01:24:38.260Z,6.53
2023-01-31T01:27:06.193Z,6.63
2023-01-31T01:29:34.270Z,6.55
2023-01-31T01:32:02.802Z,6.52
2023-01-31T01:34:31.008Z,6.61
2023-01-31T01:36:59.049Z,6.50
2023-01-31T01:39:30.423Z,6.47
2023-01-31T01:42:00.187Z,6.58
2023-01-31T01:44:47.622Z,6.65
2023-01-31T01:47:34.479Z,6.39
2023-01-31T01:50:10.910Z,6.23
2023-01-31T01:52:42.478Z,6.29
2023-01-31T01:55:19.388Z,6.30
2023-01-31T01:57:52.828Z,6.29
2023-01-31T02:00:24.281Z,6.46
2023-01-31T02:02:57.832Z,6.44
2023-01-31T02:05:32.191Z,6.29
2023-01-31T02:08:02.670Z,6.35
2023-01-31T02:10:36.013Z,6.28
2023-01-31T02:13:09.987Z,6.50
2023-01-31T02:15:38.141Z,6.53
2023-01-31T02:18:06.933Z,6.46
2023-01-31T02:20:53.266Z,6.52
2023-01-31T02:23:45.356Z,6.56
2023-01-31T02:27:00.893Z,6.27
2023-01-31T02:29:43.898Z,6.36
2023-01-31T02:32:47.889Z,6.51
2023-01-31T02:35:24.851Z,6.42
2023-01-31T02:38:03.475Z,6.47
2023-01-31T02:40:39.991Z,6.59
2023-01-31T02:43:14.624Z,6.55
2023-01-31T02:45:51.232Z,6.53
2023-01-31T02:48:30.431Z,6.51
2023-01-31T02:51:06.100Z,6.54
2023-01-31T02:53:38.862Z,6.61
2023-01-31T02:56:15.016Z,6.82
2023-01-31T02:58:48.674Z,6.82
2023-01-31T03:01:20.567Z,6.72
2023-01-31T03:03:49.022Z,6.68
2023-01-31T03:06:59.972Z,6.56
2023-01-31T03:09:50.942Z,6.46
2023-01-31T03:12:37.365Z,6.31
2023-01-31T03:15:21.752Z,6.27
2023-01-31T03:17:59.591Z,6.41
2023-01-31T03:20:36.388Z,6.36
2023-01-31T03:23:09.081Z,6.28
2023-01-31T03:25:40.542Z,6.38
2023-01-31T03:28:14.520Z,6.27
2023-01-31T03:30:51.959Z,6.46
2023-01-31T03:33:24.963Z,6.29
2023-01-31T03:35:58.375Z,6.21
2023-01-31T03:38:32.869Z,6.45
2023-01-31T03:41:09.837Z,6.47
2023-01-31T03:43:45.777Z,6.37
2023-01-31T03:46:21.704Z,6.39
2023-01-31T03:48:55.023Z,6.33
2023-01-31T03:51:28.412Z,6.40
2023-01-31T03:54:01.746Z,6.58
2023-01-31T03:56:39.052Z,6.54
2023-01-31T03:59:13.026Z,6.43
2023-01-31T04:01:42.698Z,6.52
2023-01-31T04:04:16.030Z,6.48
2023-01-31T04:06:44.716Z,6.36
2023-01-31T04:09:13.028Z,6.27
2023-01-31T04:11:43.562Z,6.49
2023-01-31T04:14:11.738Z,6.43
2023-01-31T04:16:39.828Z,6.60
2023-01-31T04:19:08.066Z,6.59
2023-01-31T04:21:36.188Z,6.33
2023-01-31T04:24:05.786Z,6.48
2023-01-31T04:26:34.082Z,6.49
2023-01-31T04:29:03.992Z,6.75
2023-01-31T04:31:32.571Z,6.69
2023-01-31T04:34:00.672Z,6.69
2023-01-31T04:36:28.669Z,6.69
2023-01-31T04:38:56.604Z,6.54
2023-01-31T04:41:24.947Z,6.52
2023-01-31T04:43:52.903Z,6.67
2023-01-31T04:46:22.442Z,6.78
2023-01-31T04:48:50.451Z,6.82
2023-01-31T04:51:18.387Z,6.90
2023-01-31T04:53:46.429Z,6.90
2023-01-31T04:56:14.379Z,6.72
2023-01-31T04:58:43.440Z,6.91
2023-01-31T05:01:11.559Z,7.06
2023-01-31T05:03:41.146Z,7.09
2023-01-31T05:06:09.597Z,7.09
2023-01-31T05:08:37.484Z,7.04
2023-01-31T05:11:07.549Z,7.28
2023-01-31T05:13:38.171Z,7.11
2023-01-31T05:16:08.413Z,6.88
2023-01-31T05:18:36.735Z,6.82
2023-01-31T05:21:07.590Z,6.97
2023-01-31T05:23:36.131Z,6.87
2023-01-31T05:26:04.913Z,6.95
2023-01-31T05:28:33.000Z,6.77
2023-01-31T05:31:06.881Z,6.87
2023-01-31T05:33:36.096Z,7.08
2023-01-31T05:36:06.232Z,6.98
2023-01-31T05:38:34.097Z,7.15
2023-01-31T05:41:02.263Z,7.07
2023-01-31T05:43:30.307Z,6.92
2023-01-31T05:45:58.279Z,7.01
2023-01-31T05:48:26.384Z,6.88
2023-01-31T05:50:54.282Z,6.96
2023-01-31T05:53:24.600Z,6.92
2023-01-31T05:55:53.377Z,7.16
2023-01-31T05:58:21.510Z,7.00
2023-01-31T06:00:49.453Z,7.14
2023-01-31T06:03:17.514Z,7.02
2023-01-31T06:05:45.586Z,6.95
2023-01-31T06:08:13.910Z,7.08
2023-01-31T06:10:43.264Z,7.04
2023-01-31T06:13:11.614Z,7.13
2023-01-31T06:15:44.374Z,6.95
2023-01-31T06:18:13.232Z,6.86
2023-01-31T06:20:41.143Z,7.05
2023-01-31T06:23:09.069Z,6.89
2023-01-31T06:25:37.075Z,6.82
2023-01-31T06:28:06.618Z,6.91
2023-01-31T06:30:34.933Z,6.99
2023-01-31T06:33:03.607Z,6.87
2023-01-31T06:35:33.837Z,6.84
2023-01-31T06:38:02.091Z,6.89
2023-01-31T06:40:30.750Z,6.94
2023-01-31T06:42:58.715Z,6.89
2023-01-31T06:45:28.063Z,6.95
2023-01-31T06:47:56.157Z,7.04
2023-01-31T06:50:24.144Z,7.07
2023-01-31T06:52:52.095Z,6.98
2023-01-31T06:55:20.284Z,6.98
2023-01-31T06:57:48.966Z,6.98
2023-01-31T07:00:19.425Z,7.08
2023-01-31T07:02:49.476Z,7.06
2023-01-31T07:05:18.043Z,7.13
2023-01-31T07:07:46.513Z,7.16
2023-01-31T07:10:14.950Z,7.14
2023-01-31T07:12:43.479Z,7.02
2023-01-31T07:15:12.222Z,7.10
2023-01-31T07:17:40.221Z,6.99
2023-01-31T07:20:11.444Z,7.05
2023-01-31T07:22:39.368Z,7.08
2023-01-31T07:25:08.941Z,7.14
2023-01-31T07:27:37.212Z,7.27
2023-01-31T07:30:07.141Z,7.00
2023-01-31T07:32:35.318Z,7.17
2023-01-31T07:35:03.287Z,7.02
2023-01-31T07:37:32.987Z,7.13
2023-01-31T07:40:01.316Z,7.19
2023-01-31T07:42:29.924Z,7.27
2023-01-31T07:44:58.028Z,7.28
2023-01-31T07:47:26.683Z,7.20
2023-01-31T07:49:55.592Z,7.26
2023-01-31T07:52:23.629Z,7.16
2023-01-31T07:54:52.905Z,7.07
2023-01-31T07:57:20.891Z,7.10
2023-01-31T07:59:48.893Z,7.34
2023-01-31T08:02:36.064Z,7.26
2023-01-31T08:05:05.849Z,7.19
2023-01-31T08:07:33.930Z,7.25
2023-01-31T08:10:04.091Z,7.44
2023-01-31T08:12:33.084Z,7.17
2023-01-31T08:15:01.652Z,7.20
2023-01-31T08:17:30.630Z,7.20
2023-01-31T08:19:58.534Z,7.23
2023-01-31T08:22:26.601Z,7.13
2023-01-31T08:24:54.920Z,7.06
2023-01-31T08:27:24.167Z,7.06
2023-01-31T08:29:52.270Z,7.15
2023-01-31T08:32:20.475Z,6.98
2023-01-31T08:34:48.503Z,7.01
2023-01-31T08:37:18.433Z,6.94
2023-01-31T08:39:48.877Z,6.98
2023-01-31T08:42:17.213Z,7.15
2023-01-31T08:44:46.971Z,7.25
2023-01-31T08:47:15.097Z,7.22
2023-01-31T08:49:42.985Z,7.37
2023-01-31T08:52:11.001Z,7.18
2023-01-31T08:54:39.000Z,7.35
2023-01-31T08:57:07.359Z,7.43
2023-01-31T08:59:35.973Z,7.32
2023-01-31T09:02:05.714Z,7.52
2023-01-31T09:04:33.835Z,7.47
2023-01-31T09:07:02.141Z,7.36
2023-01-31T09:09:30.735Z,7.40
2023-01-31T09:11:58.901Z,7.35
2023-01-31T09:14:27.087Z,7.45
2023-01-31T09:16:55.067Z,7.54
2023-01-31T09:19:24.737Z,7.41
2023-01-31T09:21:52.685Z,7.47
2023-01-31T09:24:20.733Z,7.59
2023-01-31T09:26:48.744Z,7.60
2023-01-31T09:29:16.720Z,7.45
2023-01-31T09:31:45.087Z,7.57
2023-01-31T09:34:13.905Z,7.48
2023-01-31T09:36:43.284Z,7.43
2023-01-31T09:39:13.083Z,7.81
2023-01-31T09:41:45.979Z,7.62
2023-01-31T09:44:20.966Z,7.70
2023-01-31T09:46:55.065Z,7.44
2023-01-31T09:49:28.427Z,7.50
2023-01-31T09:52:01.355Z,7.66
2023-01-31T09:54:34.681Z,7.52
2023-01-31T09:57:12.311Z,7.62
2023-01-31T09:59:49.768Z,7.43
2023-01-31T10:02:47.160Z,7.48
2023-01-31T10:05:24.865Z,7.64
2023-01-31T10:08:07.493Z,7.72
2023-01-31T10:10:39.461Z,7.78
2023-01-31T10:13:18.268Z,7.60
2023-01-31T10:15:51.556Z,7.58
2023-01-31T10:18:25.902Z,7.80
2023-01-31T10:20:57.967Z,7.71
2023-01-31T10:23:32.281Z,7.80
2023-01-31T10:26:03.049Z,7.71
2023-01-31T10:28:37.769Z,7.58
2023-01-31T10:31:13.289Z,7.61
2023-01-31T10:33:49.321Z,7.67
2023-01-31T10:36:27.926Z,7.63
2023-01-31T10:39:04.624Z,7.58
2023-01-31T10:41:47.224Z,7.57
2023-01-31T10:44:22.981Z,7.71
2023-01-31T10:46:53.773Z,7.66
2023-01-31T10:49:24.694Z,7.81
2023-01-31T10:52:08.784Z,7.59
2023-01-31T10:54:50.839Z,7.50
2023-01-31T10:57:19.187Z,7.54
2023-01-31T10:59:49.626Z,7.66
2023-01-31T11:02:22.629Z,7.65
2023-01-31T11:04:53.459Z,7.80
2023-01-31T11:07:22.218Z,7.69
2023-01-31T11:09:54.385Z,7.91
2023-01-31T11:12:23.446Z,7.85
2023-01-31T11:15:07.917Z,7.79
2023-01-31T11:17:39.165Z,7.57
2023-01-31T11:20:10.424Z,7.78
2023-01-31T11:22:40.889Z,7.83
2023-01-31T11:25:21.582Z,7.94
2023-01-31T11:27:50.915Z,7.97
2023-01-31T11:30:24.077Z,7.96
2023-01-31T11:32:52.540Z,8.05
2023-01-31T11:35:27.097Z,7.90
2023-01-31T11:37:57.161Z,7.83
2023-01-31T11:40:33.087Z,7.98
2023-01-31T11:43:03.030Z,7.98
2023-01-31T11:45:33.000Z,7.97
2023-01-31T11:48:08.679Z,8.06
2023-01-31T11:50:40.298Z,7.97
2023-01-31T11:53:18.692Z,8.05
2023-01-31T11:55:49.772Z,7.91
2023-01-31T11:58:22.015Z,7.82
2023-01-31T12:00:57.146Z,8.14
2023-01-31T12:03:26.261Z,8.22
2023-01-31T12:06:02.908Z,8.18
2023-01-31T12:08:33.092Z,8.17
2023-01-31T12:11:06.667Z,8.18
2023-01-31T12:13:47.531Z,8.25
2023-01-31T12:16:19.720Z,8.41
2023-01-31T12:19:03.546Z,8.40
2023-01-31T12:21:45.893Z,8.31
2023-01-31T12:24:23.586Z,8.21
2023-01-31T12:26:56.979Z,8.44
2023-01-31T12:29:45.643Z,8.47
2023-01-31T12:32:29.231Z,8.48
2023-01-31T12:35:18.341Z,8.50
2023-01-31T12:37:56.364Z,8.65
2023-01-31T12:40:39.080Z,8.80
2023-01-31T12:43:23.730Z,8.91
2023-01-31T12:46:07.071Z,8.77
2023-01-31T12:49:13.958Z,8.78
2023-01-31T12:51:47.138Z,8.84
2023-01-31T12:54:28.382Z,8.74
2023-01-31T12:57:04.060Z,8.65
2023-01-31T12:59:45.352Z,8.77
2023-01-31T13:02:36.581Z,8.86
2023-01-31T13:05:13.302Z,8.82
2023-01-31T13:07:46.902Z,9.04
2023-01-31T13:10:22.112Z,8.98
2023-01-31T13:12:50.997Z,9.13
2023-01-31T13:15:29.811Z,9.16
2023-01-31T13:18:03.120Z,8.93
2023-01-31T13:20:36.960Z,9.06
2023-01-31T13:23:11.895Z,9.03
2023-01-31T13:25:43.273Z,8.98
2023-01-31T13:28:16.597Z,8.95
2023-01-31T13:30:52.119Z,9.23
2023-01-31T13:33:29.092Z,9.11
2023-01-31T13:36:07.440Z,9.12
2023-01-31T13:38:41.201Z,9.14
2023-01-31T13:41:14.215Z,9.17
2023-01-31T13:43:42.340Z,9.12
2023-01-31T13:46:14.572Z,8.95
2023-01-31T13:48:48.380Z,8.91
2023-01-31T13:51:21.245Z,9.06
2023-01-31T13:53:53.325Z,9.21
2023-01-31T13:56:26.157Z,9.27
2023-01-31T13:58:56.981Z,9.39
2023-01-31T14:01:29.213Z,9.34
2023-01-31T14:04:24.115Z,9.13
2023-01-31T14:07:25.243Z,9.37
2023-01-31T14:10:29.605Z,9.19
2023-01-31T14:13:29.012Z,9.37
2023-01-31T14:15:58.729Z,9.33
2023-01-31T14:18:42.852Z,9.04
2023-01-31T14:21:49.338Z,9.02
2023-01-31T14:24:36.444Z,9.04
2023-01-31T14:27:14.972Z,8.93
2023-01-31T14:29:45.009Z,8.77
2023-01-31T14:32:19.566Z,9.07
2023-01-31T14:34:52.369Z,8.88
2023-01-31T14:37:33.794Z,8.85
2023-01-31T14:40:23.733Z,8.93
2023-01-31T14:43:18.220Z,9.00
2023-01-31T14:46:23.015Z,8.72
2023-01-31T14:49:19.005Z,8.87
2023-01-31T14:52:06.228Z,8.97
2023-01-31T14:54:48.801Z,8.94
2023-01-31T14:57:20.503Z,8.82
2023-01-31T14:59:56.635Z,8.84
2023-01-31T15:02:48.103Z,8.93
2023-01-31T15:05:19.724Z,8.68
2023-01-31T15:08:05.491Z,8.62
2023-01-31T15:10:57.576Z,8.64
2023-01-31T15:13:50.875Z,8.90
2023-01-31T15:16:25.366Z,8.91
2023-01-31T15:19:02.791Z,8.75
2023-01-31T15:21:33.959Z,8.83
2023-01-31T15:24:04.134Z,8.80
2023-01-31T15:26:35.714Z,8.65
2023-01-31T15:29:05.727Z,8.51
2023-01-31T15:31:42.098Z,8.59
2023-01-31T15:34:17.858Z,8.48
2023-01-31T15:36:52.895Z,8.51
2023-01-31T15:39:28.734Z,8.32
2023-01-31T15:41:57.125Z,8.45
2023-01-31T15:44:27.589Z,8.68
2023-01-31T15:46:58.220Z,8.62
2023-01-31T15:49:38.936Z,8.47
2023-01-31T15:52:15.886Z,8.60
2023-01-31T15:54:56.559Z,8.58
2023-01-31T15:57:27.697Z,8.36
2023-01-31T15:59:57.596Z,8.25
2023-01-31T16:02:30.237Z,8.49
2023-01-31T16:04:58.612Z,8.62
2023-01-31T16:07:31.231Z,8.54
2023-01-31T16:10:03.029Z,8.50
2023-01-31T16:12:34.287Z,8.59
2023-01-31T16:15:07.211Z,8.71
2023-01-31T16:17:35.611Z,8.59
2023-01-31T16:20:05.611Z,8.35
2023-01-31T16:22:34.181Z,8.25
2023-01-31T16:25:05.642Z,8.10
2023-01-31T16:27:38.407Z,8.22
2023-01-31T16:30:07.690Z,8.14
2023-01-31T16:32:41.872Z,8.11
2023-01-31T16:35:24.928Z,8.08
2023-01-31T16:38:03.832Z,8.01
2023-01-31T16:40:37.971Z,8.22
2023-01-31T16:43:21.417Z,8.08
2023-01-31T16:45:54.683Z,8.02
2023-01-31T16:48:28.489Z,7.94
2023-01-31T16:51:00.233Z,7.83
2023-01-31T16:53:34.968Z,7.90
2023-01-31T16:56:29.424Z,8.04
2023-01-31T16:59:00.148Z,8.04
2023-01-31T17:01:30.852Z,8.09
2023-01-31T17:04:15.917Z,7.97
2023-01-31T17:06:49.674Z,7.90
2023-01-31T17:09:22.643Z,8.16
2023-01-31T17:11:54.844Z,7.82
2023-01-31T17:14:24.345Z,7.67
2023-01-31T17:16:54.694Z,7.96
2023-01-31T17:19:32.266Z,7.99
2023-01-31T17:22:06.085Z,7.90
2023-01-31T17:24:34.845Z,7.87
2023-01-31T17:27:05.137Z,7.72
2023-01-31T17:29:33.670Z,7.73
2023-01-31T17:32:02.380Z,7.76
2023-01-31T17:34:31.603Z,7.85
2023-01-31T17:36:59.713Z,7.80
2023-01-31T17:39:27.814Z,7.76
2023-01-31T17:41:56.049Z,7.67
2023-01-31T17:44:26.778Z,7.67
2023-01-31T17:46:55.054Z,7.60
2023-01-31T17:49:23.633Z,7.62
2023-01-31T17:51:51.885Z,7.79
2023-01-31T17:54:20.596Z,7.81
2023-01-31T17:56:48.797Z,7.87
2023-01-31T17:59:26.668Z,7.62
2023-01-31T18:01:57.539Z,7.72
2023-01-31T18:04:25.979Z,7.59
2023-01-31T18:06:54.251Z,7.52
2023-01-31T18:09:22.528Z,7.71
2023-01-31T18:11:50.811Z,7.55
2023-01-31T18:14:18.882Z,7.67
2023-01-31T18:16:47.056Z,7.55
2023-01-31T18:19:16.663Z,7.62
2023-01-31T18:21:54.488Z,7.64
2023-01-31T18:24:23.765Z,7.64
2023-01-31T18:26:53.079Z,7.70
2023-01-31T18:29:23.488Z,7.51
2023-01-31T18:31:52.185Z,7.47
2023-01-31T18:34:21.862Z,7.64
2023-01-31T18:36:50.016Z,7.73
2023-01-31T18:39:18.171Z,7.65
2023-01-31T18:41:46.824Z,7.63
2023-01-31T18:44:15.157Z,7.57
2023-01-31T18:46:43.462Z,7.54
2023-01-31T18:49:12.914Z,7.45
2023-01-31T18:51:42.949Z,7.50
2023-01-31T18:54:11.074Z,7.52
2023-01-31T18:56:39.450Z,7.52
2023-01-31T18:59:07.521Z,7.52
2023-01-31T19:01:35.781Z,7.36
2023-01-31T19:04:04.645Z,7.41
2023-01-31T19:06:36.769Z,7.64
2023-01-31T19:09:08.664Z,7.73
2023-01-31T19:11:37.224Z,7.68
2023-01-31T19:14:07.877Z,7.71
2023-01-31T19:16:40.304Z,7.67
2023-01-31T19:19:09.787Z,7.59
2023-01-31T19:21:38.829Z,7.61
2023-01-31T19:24:12.362Z,7.51
2023-01-31T19:26:40.936Z,7.49
2023-01-31T19:29:09.991Z,7.59
2023-01-31T19:31:39.308Z,7.56
2023-01-31T19:34:08.697Z,7.54
2023-01-31T19:36:39.063Z,7.56
2023-01-31T19:39:12.481Z,7.62
2023-01-31T19:41:42.629Z,7.61
2023-01-31T19:44:11.553Z,7.52
2023-01-31T19:46:39.600Z,7.64
2023-01-31T19:49:07.908Z,7.72
2023-01-31T19:51:37.988Z,7.89
2023-01-31T19:54:06.737Z,7.81
2023-01-31T19:56:36.275Z,7.76
2023-01-31T19:59:06.118Z,7.84
2023-01-31T20:01:35.014Z,7.66
2023-01-31T20:04:03.598Z,7.60
2023-01-31T20:06:36.585Z,7.52
2023-01-31T20:09:07.436Z,7.46
2023-01-31T20:11:37.124Z,7.59
2023-01-31T20:14:06.506Z,7.53
2023-01-31T20:16:34.697Z,7.56
2023-01-31T20:19:04.124Z,7.53
2023-01-31T20:21:32.893Z,7.61
2023-01-31T20:24:01.231Z,7.47
2023-01-31T20:26:30.486Z,7.62
2023-01-31T20:29:00.395Z,7.72
2023-01-31T20:31:28.554Z,7.52
2023-01-31T20:33:57.393Z,7.50
2023-01-31T20:36:25.377Z,7.64
2023-01-31T20:38:54.164Z,7.63
2023-01-31T20:41:23.012Z,7.47
2023-01-31T20:43:52.107Z,7.47
2023-01-31T20:46:21.991Z,7.62
2023-01-31T20:48:50.361Z,7.75
2023-01-31T20:51:18.906Z,7.46
2023-01-31T20:53:47.069Z,7.39
2023-01-31T20:56:15.823Z,7.38
2023-01-31T20:58:45.886Z,7.56
2023-01-31T21:01:14.614Z,7.48
2023-01-31T21:03:44.653Z,7.37
2023-01-31T21:06:13.486Z,7.33
2023-01-31T21:08:42.047Z,7.31
2023-01-31T21:11:15.875Z,7.39
2023-01-31T21:13:44.407Z,7.33
2023-01-31T21:16:15.479Z,7.28
2023-01-31T21:18:47.040Z,7.28
2023-01-31T21:21:22.747Z,7.36
2023-01-31T21:23:52.204Z,7.38
2023-01-31T21:26:21.576Z,7.49
2023-01-31T21:28:50.408Z,7.57
2023-01-31T21:31:21.249Z,7.45
2023-01-31T21:33:53.118Z,7.46
2023-01-31T21:36:23.877Z,7.58
2023-01-31T21:38:52.382Z,7.53
2023-01-31T21:41:38.065Z,7.69
2023-01-31T21:44:07.184Z,7.63
2023-01-31T21:46:35.314Z,7.67
2023-01-31T21:49:05.099Z,7.55
2023-01-31T21:51:33.285Z,7.56
2023-01-31T21:54:01.468Z,7.52
2023-01-31T21:56:30.852Z,7.53
2023-01-31T21:58:59.262Z,7.35
2023-01-31T22:01:29.407Z,7.55
2023-01-31T22:03:58.015Z,7.57
2023-01-31T22:06:31.384Z,7.42
2023-01-31T22:09:01.185Z,7.57
2023-01-31T22:11:33.210Z,7.46
2023-01-31T22:14:03.877Z,7.25
2023-01-31T22:16:32.450Z,7.38
2023-01-31T22:19:02.103Z,7.39
2023-01-31T22:21:33.471Z,7.32
2023-01-31T22:24:04.938Z,7.26
2023-01-31T22:26:34.905Z,7.36
2023-01-31T22:29:06.248Z,7.42
2023-01-31T22:31:34.977Z,7.48
2023-01-31T22:34:05.332Z,7.30
2023-01-31T22:36:35.637Z,7.36
2023-01-31T22:39:03.916Z,7.48
2023-01-31T22:41:32.389Z,7.48
2023-01-31T22:44:00.722Z,7.39
2023-01-31T22:46:30.306Z,7.51
2023-01-31T22:48:58.921Z,7.50
2023-01-31T22:51:29.147Z,7.39
2023-01-31T22:53:59.619Z,7.41
2023-01-31T22:56:29.779Z,7.46
2023-01-31T22:58:59.016Z,7.53
2023-01-31T23:01:29.728Z,7.58
2023-01-31T23:03:59.011Z,7.56
2023-01-31T23:06:27.827Z,7.57
2023-01-31T23:08:56.311Z,7.72
2023-01-31T23:11:26.542Z,7.71
2023-01-31T23:13:54.716Z,7.68
2023-01-31T23:16:45.848Z,7.41
2023-01-31T23:19:14.704Z,7.61
2023-01-31T23:21:43.620Z,7.53
2023-01-31T23:24:12.296Z,7.54
2023-01-31T23:26:41.783Z,7.57
2023-01-31T23:29:10.006Z,7.56
2023-01-31T23:31:38.724Z,7.37
2023-01-31T23:34:07.731Z,7.46
2023-01-31T23:36:36.834Z,7.58
2023-01-31T23:39:06.119Z,7.43
2023-01-31T23:41:34.092Z,7.42
2023-01-31T23:44:04.443Z,7.50
2023-01-31T23:46:32.787Z,7.58
2023-01-31T23:49:00.778Z,7.42
2023-01-31T23:51:31.209Z,7.43
2023-01-31T23:53:59.814Z,7.44
2023-01-31T23:56:27.836Z,7.55
2023-01-31T23:58:56.034Z,7.48
